Time;durP1;ratioP1;P1;durP2;ratioP2;P2;SDS_P1;SDS_P2;PMS_P1;PMS_P2;Temp;Humidity;BMP_temperature;BMP_pressure;BME280_temperature;BME280_humidity;BME280_pressure;Samples;Min_cycle;Max_cycle;Signal;HPM_P1;HPM_P2
2022/01/12 00:00:21;;;;;;;14.30;10.23;;;;;;;;;;5020424;28;20037;-54
2022/01/12 00:02:46;;;;;;;15.77;10.90;;;;;;;;;;5017501;28;20079;-50
2022/01/12 00:05:12;;;;;;;18.00;10.85;;;;;;;;;;5021824;28;20371;-53
2022/01/12 00:07:38;;;;;;;18.77;11.65;;;;;;;;;;5023576;28;20371;-55
2022/01/12 00:10:04;;;;;;;17.70;10.90;;;;;;;;;;5024828;28;20045;-55
2022/01/12 00:12:30;;;;;;;17.45;10.85;;;;;;;;;;5022795;28;20486;-50
2022/01/12 00:14:56;;;;;;;19.73;10.98;;;;;;;;;;5021959;28;20040;-52
2022/01/12 00:17:21;;;;;;;19.77;10.93;;;;;;;;;;5020842;28;20065;-54
2022/01/12 00:19:48;;;;;;;17.15;11.85;;;;;;;;;;5027911;28;20054;-55
2022/01/12 00:22:14;;;;;;;14.50;10.20;;;;;;;;;;5029036;28;20033;-50
2022/01/12 00:25:03;;;;;;;16.63;9.52;;;;;;;;;;5029324;28;20026;-54
2022/01/12 00:33:13;;;;;;;16.77;10.40;;;;;;;;;;5027428;28;20033;-54
2022/01/12 00:35:45;;;;;;;15.55;10.00;;;;;;;;;;5025509;28;20029;-53
2022/01/12 00:38:12;;;;;;;18.05;11.40;;;;;;;;;;5029851;28;20073;-53
2022/01/12 00:40:40;;;;;;;15.48;10.88;;;;;;;;;;5028273;28;20520;-55
2022/01/12 00:43:07;;;;;;;16.55;10.77;;;;;;;;;;5022199;28;20033;-55
2022/01/12 00:45:34;;;;;;;17.38;11.32;;;;;;;;;;5026288;28;20107;-56
2022/01/12 00:48:00;;;;;;;16.48;12.00;;;;;;;;;;5024200;28;20041;-48
2022/01/12 00:50:26;;;;;;;16.00;11.73;;;;;;;;;;5027813;28;20064;-55
2022/01/12 00:52:53;;;;;;;25.23;13.68;;;;;;;;;;5022766;28;20061;-54
2022/01/12 00:55:19;;;;;;;20.80;12.75;;;;;;;;;;5022987;28;20052;-53
2022/01/12 00:57:45;;;;;;;18.50;10.73;;;;;;;;;;5029297;28;20041;-56
2022/01/12 01:00:12;;;;;;;15.35;9.80;;;;;;;;;;5026830;28;20167;-55
2022/01/12 01:02:38;;;;;;;25.05;13.10;;;;;;;;;;5025264;28;20038;-53
2022/01/12 01:05:04;;;;;;;24.08;14.55;;;;;;;;;;5021968;28;20037;-55
2022/01/12 01:07:30;;;;;;;21.92;13.50;;;;;;;;;;5020328;28;20093;-56
2022/01/12 01:10:07;;;;;;;20.40;11.95;;;;;;;;;;5025055;28;20060;-51
2022/01/12 01:12:35;;;;;;;21.02;11.75;;;;;;;;;;5027697;28;20029;-54
2022/01/12 01:25:45;;;;;;;22.85;13.30;;;;;;;;;;5020465;28;20030;-56
2022/01/12 01:28:13;;;;;;;22.83;12.85;;;;;;;;;;5022987;28;20071;-48
2022/01/12 01:30:40;;;;;;;22.10;12.95;;;;;;;;;;5023875;28;20051;-55
2022/01/12 01:33:09;;;;;;;15.82;10.38;;;;;;;;;;5021378;28;20033;-53
2022/01/12 01:35:41;;;;;;;17.67;11.40;;;;;;;;;;5025764;28;20045;-53
2022/01/12 01:38:07;;;;;;;18.70;12.95;;;;;;;;;;5019737;28;20044;-55
2022/01/12 01:40:36;;;;;;;18.35;10.90;;;;;;;;;;5024441;28;20080;-52
2022/01/12 01:53:52;;;;;;;13.98;9.80;;;;;;;;;;5022517;28;20038;-56
2022/01/12 01:56:21;;;;;;;14.23;10.32;;;;;;;;;;5022168;28;20436;-53
2022/01/12 01:58:47;;;;;;;16.17;10.73;;;;;;;;;;5019991;28;20573;-54
2022/01/12 02:01:14;;;;;;;17.40;10.32;;;;;;;;;;5022768;28;20474;-53
2022/01/12 02:03:41;;;;;;;13.50;9.50;;;;;;;;;;5024391;28;20033;-56
2022/01/12 02:06:08;;;;;;;11.88;8.45;;;;;;;;;;5023201;28;20040;-55
2022/01/12 02:08:35;;;;;;;8.93;7.68;;;;;;;;;;5020737;28;20033;-55
2022/01/12 02:11:02;;;;;;;11.70;8.07;;;;;;;;;;5022509;28;20065;-56
2022/01/12 02:13:28;;;;;;;12.95;8.52;;;;;;;;;;5025244;28;20037;-52
2022/01/12 02:15:55;;;;;;;9.50;7.60;;;;;;;;;;5027409;28;20485;-56
2022/01/12 02:40:37;;;;;;;12.60;9.27;;;;;;;;;;5024915;28;20037;-56
2022/01/12 02:56:07;;;;;;;14.77;9.00;;;;;;;;;;5024520;28;20088;-56
2022/01/12 02:58:33;;;;;;;14.48;9.40;;;;;;;;;;5023973;28;20048;-56
2022/01/12 03:01:21;;;;;;;21.60;10.40;;;;;;;;;;5020948;28;20041;-56
2022/01/12 03:03:50;;;;;;;14.30;9.02;;;;;;;;;;5024318;28;20037;-49
2022/01/12 03:06:22;;;;;;;16.40;8.57;;;;;;;;;;5020377;28;20661;-49
2022/01/12 03:08:49;;;;;;;11.70;8.23;;;;;;;;;;5012532;28;20583;-51
2022/01/12 03:11:17;;;;;;;11.45;7.85;;;;;;;;;;5020115;28;20042;-50
2022/01/12 03:13:43;;;;;;;11.23;8.27;;;;;;;;;;5019957;28;20048;-49
2022/01/12 03:16:18;;;;;;;9.43;7.50;;;;;;;;;;5024154;28;20041;-50
2022/01/12 03:18:46;;;;;;;14.40;7.75;;;;;;;;;;5025349;28;20398;-48
2022/01/12 03:21:13;;;;;;;13.48;9.00;;;;;;;;;;5019590;28;20072;-50
2022/01/12 03:23:39;;;;;;;10.80;7.60;;;;;;;;;;5023951;28;20041;-48
2022/01/12 03:26:06;;;;;;;12.88;8.07;;;;;;;;;;5020471;28;20021;-51
2022/01/12 03:28:32;;;;;;;10.07;7.65;;;;;;;;;;5019022;28;20064;-52
2022/01/12 03:31:14;;;;;;;11.70;7.00;;;;;;;;;;5020593;28;20433;-51
2022/01/12 03:36:28;;;;;;;11.38;8.10;;;;;;;;;;5017437;28;20045;-51
2022/01/12 03:38:59;;;;;;;12.93;7.57;;;;;;;;;;5016197;28;20060;-50
2022/01/12 03:41:28;;;;;;;10.82;7.22;;;;;;;;;;5026081;28;20463;-49
2022/01/12 03:43:56;;;;;;;8.07;6.60;;;;;;;;;;5023916;28;20029;-50
2022/01/12 03:46:26;;;;;;;12.18;7.85;;;;;;;;;;5025510;28;20072;-49
2022/01/12 03:48:52;;;;;;;11.10;7.25;;;;;;;;;;5029340;28;20467;-50
2022/01/12 03:51:18;;;;;;;11.48;7.22;;;;;;;;;;5027419;28;20033;-54
2022/01/12 03:53:44;;;;;;;12.45;7.57;;;;;;;;;;5029381;28;20432;-53
2022/01/12 03:56:10;;;;;;;12.02;7.53;;;;;;;;;;5023822;28;20052;-56
2022/01/12 03:58:36;;;;;;;11.13;7.70;;;;;;;;;;5031741;28;20029;-53
2022/01/12 04:01:03;;;;;;;11.32;7.07;;;;;;;;;;5024195;28;20411;-55
2022/01/12 04:03:35;;;;;;;10.82;7.25;;;;;;;;;;5027464;28;20482;-52
2022/01/12 04:08:46;;;;;;;10.43;7.13;;;;;;;;;;5032161;28;20044;-52
2022/01/12 04:11:11;;;;;;;8.93;6.93;;;;;;;;;;5030502;28;20030;-56
2022/01/12 04:13:37;;;;;;;10.55;6.90;;;;;;;;;;5023723;28;20060;-54
2022/01/12 04:16:08;;;;;;;8.35;7.03;;;;;;;;;;5030766;28;20025;-54
2022/01/12 04:18:35;;;;;;;9.60;6.78;;;;;;;;;;5028671;28;20478;-54
2022/01/12 04:21:04;;;;;;;8.90;6.70;;;;;;;;;;5026692;28;20491;-52
2022/01/12 04:23:30;;;;;;;9.90;6.68;;;;;;;;;;5030889;28;20037;-54
2022/01/12 04:25:58;;;;;;;9.38;7.03;;;;;;;;;;5025884;28;20033;-56
2022/01/12 04:28:26;;;;;;;9.57;6.97;;;;;;;;;;5025753;28;20109;-53
2022/01/12 04:30:56;;;;;;;7.70;5.93;;;;;;;;;;5028652;28;20050;-50
2022/01/12 04:33:23;;;;;;;8.93;6.53;;;;;;;;;;5025884;28;20037;-51
2022/01/12 04:35:54;;;;;;;12.55;6.75;;;;;;;;;;5028090;28;20037;-49
2022/01/12 04:38:22;;;;;;;13.40;7.40;;;;;;;;;;5028190;28;20385;-53
2022/01/12 04:40:49;;;;;;;11.20;7.28;;;;;;;;;;5022911;28;20079;-53
2022/01/12 04:43:17;;;;;;;9.93;7.07;;;;;;;;;;5034390;28;20033;-50
2022/01/12 04:50:51;;;;;;;327.17;98.40;;;;;;;;;;5024971;28;20065;-50
2022/01/12 04:53:19;;;;;;;251.38;77.00;;;;;;;;;;5026852;28;20112;-52
2022/01/12 04:55:46;;;;;;;46.38;18.35;;;;;;;;;;5029973;28;20447;-51
2022/01/12 04:58:14;;;;;;;40.08;14.63;;;;;;;;;;5027735;28;20422;-53
2022/01/12 05:00:42;;;;;;;25.92;11.38;;;;;;;;;;5023255;28;20021;-50
2022/01/12 05:13:54;;;;;;;15.05;10.38;;;;;;;;;;5026161;28;20712;-52
2022/01/12 05:16:22;;;;;;;24.80;16.65;;;;;;;;;;5027852;28;20031;-53
2022/01/12 05:18:50;;;;;;;37.90;17.63;;;;;;;;;;5023472;28;20436;-50
2022/01/12 05:21:18;;;;;;;76.10;36.40;;;;;;;;;;5023214;28;20415;-52
2022/01/12 05:23:43;;;;;;;55.65;24.38;;;;;;;;;;5019145;28;20030;-55
2022/01/12 05:26:09;;;;;;;57.17;22.50;;;;;;;;;;5023665;28;20481;-52
2022/01/12 05:28:38;;;;;;;48.58;19.35;;;;;;;;;;5024707;28;20025;-50
2022/01/12 05:31:06;;;;;;;68.50;21.88;;;;;;;;;;5023659;28;20167;-54
2022/01/12 05:33:32;;;;;;;57.92;22.73;;;;;;;;;;5026242;28;20069;-49
2022/01/12 05:35:59;;;;;;;54.40;20.73;;;;;;;;;;5025498;28;20057;-52
2022/01/12 05:38:26;;;;;;;52.47;19.13;;;;;;;;;;5024938;28;20032;-50
2022/01/12 05:40:58;;;;;;;32.50;13.05;;;;;;;;;;5026303;28;20117;-52
2022/01/12 05:43:27;;;;;;;19.15;10.30;;;;;;;;;;5023733;28;20432;-56
2022/01/12 05:45:54;;;;;;;11.70;7.35;;;;;;;;;;5025856;28;20494;-51
2022/01/12 05:50:49;;;;;;;8.63;5.75;;;;;;;;;;5028180;28;20029;-52
2022/01/12 05:53:16;;;;;;;8.68;6.03;;;;;;;;;;5023208;28;20025;-51
2022/01/12 05:55:43;;;;;;;11.55;6.10;;;;;;;;;;5020700;28;20037;-51
2022/01/12 05:58:09;;;;;;;6.78;5.85;;;;;;;;;;5017648;28;20038;-52
2022/01/12 06:00:35;;;;;;;11.77;6.28;;;;;;;;;;5024837;28;20462;-54
2022/01/12 06:03:01;;;;;;;10.90;7.38;;;;;;;;;;5026469;28;20052;-52
2022/01/12 06:05:28;;;;;;;14.43;9.52;;;;;;;;;;5022510;28;20033;-56
2022/01/12 06:07:54;;;;;;;23.92;13.77;;;;;;;;;;5019566;28;20030;-51
2022/01/12 06:10:22;;;;;;;19.30;11.18;;;;;;;;;;5027768;28;20147;-52
2022/01/12 06:12:49;;;;;;;16.58;9.93;;;;;;;;;;5021537;28;20038;-52
2022/01/12 06:15:15;;;;;;;23.40;12.25;;;;;;;;;;5026642;28;20100;-52
2022/01/12 06:17:40;;;;;;;19.92;11.55;;;;;;;;;;5020558;28;20061;-56
2022/01/12 06:20:08;;;;;;;18.13;10.80;;;;;;;;;;5025475;28;20041;-56
2022/01/12 06:22:35;;;;;;;16.23;10.52;;;;;;;;;;5027132;28;20034;-53
2022/01/12 06:25:02;;;;;;;14.52;8.73;;;;;;;;;;5021738;28;20065;-54
2022/01/12 06:27:30;;;;;;;15.48;8.32;;;;;;;;;;5023549;28;20034;-53
2022/01/12 06:32:41;;;;;;;16.33;9.32;;;;;;;;;;5022945;28;20037;-51
2022/01/12 06:35:07;;;;;;;15.35;9.63;;;;;;;;;;5021683;28;20497;-54
2022/01/12 06:37:33;;;;;;;15.32;9.80;;;;;;;;;;5024589;28;20034;-54
2022/01/12 06:39:58;;;;;;;23.83;13.02;;;;;;;;;;5019303;28;20048;-52
2022/01/12 06:42:25;;;;;;;37.08;20.17;;;;;;;;;;5024903;28;20068;-56
2022/01/12 06:44:51;;;;;;;53.35;28.20;;;;;;;;;;5026147;28;20083;-53
2022/01/12 06:47:20;;;;;;;50.58;24.23;;;;;;;;;;5025877;28;20041;-53
2022/01/12 06:49:46;;;;;;;98.93;40.45;;;;;;;;;;5025294;28;20045;-54
2022/01/12 06:52:11;;;;;;;64.97;28.55;;;;;;;;;;5023489;28;20048;-52
2022/01/12 06:54:37;;;;;;;46.78;23.05;;;;;;;;;;5016287;28;20036;-54
2022/01/12 06:57:03;;;;;;;30.23;14.73;;;;;;;;;;5026849;28;20045;-57
2022/01/12 06:59:29;;;;;;;32.83;15.20;;;;;;;;;;5018143;28;20557;-54
2022/01/12 07:01:55;;;;;;;34.40;16.10;;;;;;;;;;5022159;28;20043;-53
2022/01/12 07:04:21;;;;;;;40.50;20.77;;;;;;;;;;5024717;28;20457;-52
2022/01/12 07:06:47;;;;;;;46.60;25.02;;;;;;;;;;5017482;28;20030;-54
2022/01/12 07:09:12;;;;;;;40.25;17.83;;;;;;;;;;5024482;28;20446;-52
2022/01/12 07:11:39;;;;;;;37.08;16.63;;;;;;;;;;5017458;28;20440;-54
2022/01/12 07:14:04;;;;;;;61.90;30.23;;;;;;;;;;5021479;28;20034;-51
2022/01/12 07:16:30;;;;;;;59.78;30.58;;;;;;;;;;5021492;28;20120;-55
2022/01/12 07:18:59;;;;;;;33.33;16.23;;;;;;;;;;5018193;28;20033;-54
2022/01/12 07:21:26;;;;;;;25.08;14.23;;;;;;;;;;5045662;28;20120;-56
2022/01/12 07:23:56;;;;;;;56.15;25.17;;;;;;;;;;5022778;28;20087;-55
2022/01/12 07:26:23;;;;;;;57.00;27.60;;;;;;;;;;5018048;28;20698;-52
2022/01/12 07:28:50;;;;;;;40.88;20.48;;;;;;;;;;5020961;28;20046;-51
2022/01/12 07:31:16;;;;;;;26.95;13.77;;;;;;;;;;5022018;28;20053;-56
2022/01/12 07:33:42;;;;;;;20.38;11.00;;;;;;;;;;5020752;28;20379;-56
2022/01/12 07:36:08;;;;;;;19.33;9.25;;;;;;;;;;5017025;28;20474;-52
2022/01/12 07:38:33;;;;;;;19.77;10.20;;;;;;;;;;5021482;28;20034;-53
2022/01/12 07:40:59;;;;;;;17.17;9.75;;;;;;;;;;5021567;28;20123;-52
2022/01/12 07:43:25;;;;;;;16.55;8.68;;;;;;;;;;5014356;28;20050;-53
2022/01/12 07:45:51;;;;;;;13.27;8.00;;;;;;;;;;5016856;28;20541;-54
2022/01/12 07:48:17;;;;;;;11.02;6.95;;;;;;;;;;5017793;28;20048;-50
2022/01/12 07:50:44;;;;;;;12.68;7.80;;;;;;;;;;5017036;28;20038;-53
2022/01/12 07:53:11;;;;;;;10.68;7.20;;;;;;;;;;5019832;28;20033;-53
2022/01/12 07:55:37;;;;;;;11.43;6.15;;;;;;;;;;5024779;28;20065;-56
2022/01/12 07:58:03;;;;;;;8.93;5.28;;;;;;;;;;5017773;28;20116;-53
2022/01/12 08:00:29;;;;;;;7.57;5.95;;;;;;;;;;5023254;28;20037;-53
2022/01/12 08:02:55;;;;;;;10.80;5.97;;;;;;;;;;5018925;28;20474;-53
2022/01/12 08:05:21;;;;;;;7.90;5.60;;;;;;;;;;5019784;28;20117;-54
2022/01/12 08:07:48;;;;;;;11.13;6.38;;;;;;;;;;5020258;28;20937;-49
2022/01/12 08:10:15;;;;;;;7.93;6.82;;;;;;;;;;5023867;28;20034;-52
2022/01/12 08:12:41;;;;;;;13.52;7.90;;;;;;;;;;5018965;28;20026;-50
2022/01/12 08:15:09;;;;;;;18.88;8.18;;;;;;;;;;5017979;28;20038;-54
2022/01/12 08:17:35;;;;;;;11.20;7.65;;;;;;;;;;5020873;28;20036;-53
2022/01/12 08:20:03;;;;;;;15.93;7.70;;;;;;;;;;5022111;28;20045;-54
2022/01/12 08:22:29;;;;;;;20.80;10.63;;;;;;;;;;5016180;28;20026;-53
2022/01/12 08:24:55;;;;;;;32.92;10.07;;;;;;;;;;5018611;28;20033;-51
2022/01/12 08:27:21;;;;;;;27.80;10.52;;;;;;;;;;5020569;28;20033;-52
2022/01/12 08:29:49;;;;;;;18.98;11.05;;;;;;;;;;5024461;28;20044;-54
2022/01/12 08:32:15;;;;;;;15.60;11.15;;;;;;;;;;5023716;28;20568;-50
2022/01/12 08:34:41;;;;;;;26.38;11.25;;;;;;;;;;5020475;28;20029;-54
2022/01/12 08:37:07;;;;;;;20.95;11.02;;;;;;;;;;5021586;28;20068;-56
2022/01/12 08:39:33;;;;;;;13.90;7.45;;;;;;;;;;5021276;28;20076;-54
2022/01/12 08:41:59;;;;;;;19.20;9.27;;;;;;;;;;5023466;28;20459;-51
2022/01/12 08:44:24;;;;;;;11.85;8.07;;;;;;;;;;5023672;28;20390;-53
2022/01/12 08:46:50;;;;;;;11.15;7.80;;;;;;;;;;5026455;28;20033;-55
2022/01/12 08:49:16;;;;;;;10.15;5.50;;;;;;;;;;5023707;28;20057;-51
2022/01/12 08:51:42;;;;;;;11.43;7.47;;;;;;;;;;5029226;28;20108;-51
2022/01/12 08:54:07;;;;;;;13.10;7.60;;;;;;;;;;5026836;28;20042;-54
2022/01/12 08:56:35;;;;;;;12.85;8.55;;;;;;;;;;5023683;28;20033;-52
2022/01/12 08:59:01;;;;;;;8.63;6.35;;;;;;;;;;5015725;28;20038;-52
2022/01/12 09:01:26;;;;;;;7.72;5.72;;;;;;;;;;5022421;28;20139;-53
2022/01/12 09:03:52;;;;;;;10.13;6.30;;;;;;;;;;5020984;28;20041;-51
2022/01/12 09:06:18;;;;;;;8.73;5.63;;;;;;;;;;5025047;28;20108;-53
2022/01/12 09:08:45;;;;;;;7.75;5.97;;;;;;;;;;5019239;28;20057;-51
2022/01/12 09:11:12;;;;;;;8.43;6.28;;;;;;;;;;5018425;28;20072;-49
2022/01/12 09:13:39;;;;;;;10.02;6.65;;;;;;;;;;5022624;28;20124;-54
2022/01/12 09:16:06;;;;;;;12.90;5.70;;;;;;;;;;5023306;28;20122;-54
2022/01/12 09:18:36;;;;;;;8.55;6.18;;;;;;;;;;5020208;28;20044;-52
2022/01/12 09:21:03;;;;;;;8.65;5.65;;;;;;;;;;5021826;28;20064;-52
2022/01/12 09:23:29;;;;;;;10.07;6.03;;;;;;;;;;5025098;28;20052;-54
2022/01/12 09:25:55;;;;;;;9.88;6.45;;;;;;;;;;5020917;28;20174;-55
2022/01/12 09:28:22;;;;;;;7.85;5.97;;;;;;;;;;5018442;28;20103;-51
2022/01/12 09:30:48;;;;;;;9.90;6.38;;;;;;;;;;5021379;28;20048;-54
2022/01/12 09:33:13;;;;;;;8.93;6.78;;;;;;;;;;5021613;28;20037;-54
2022/01/12 09:35:39;;;;;;;24.42;15.77;;;;;;;;;;5022210;28;20026;-55
2022/01/12 09:38:06;;;;;;;16.83;9.38;;;;;;;;;;5016719;28;20120;-52
2022/01/12 09:40:32;;;;;;;8.75;7.57;;;;;;;;;;5020042;28;20405;-52
2022/01/12 09:43:04;;;;;;;14.13;7.63;;;;;;;;;;5020195;28;20111;-53
2022/01/12 09:45:30;;;;;;;11.52;8.60;;;;;;;;;;5023485;28;20048;-56
2022/01/12 09:47:56;;;;;;;10.15;6.80;;;;;;;;;;5022806;28;20406;-52
2022/01/12 09:50:23;;;;;;;7.85;6.75;;;;;;;;;;5019121;28;20034;-55
2022/01/12 09:52:50;;;;;;;9.65;6.05;;;;;;;;;;5020005;28;20037;-54
2022/01/12 09:55:16;;;;;;;8.57;6.15;;;;;;;;;;5019894;28;20069;-48
2022/01/12 09:57:42;;;;;;;9.80;6.40;;;;;;;;;;5024131;28;20438;-54
2022/01/12 10:00:10;;;;;;;8.15;5.65;;;;;;;;;;5022944;28;20061;-51
2022/01/12 10:02:36;;;;;;;9.88;5.85;;;;;;;;;;5019778;28;20037;-55
2022/01/12 10:05:08;;;;;;;7.07;5.78;;;;;;;;;;5019518;28;20052;-53
2022/01/12 10:07:35;;;;;;;;;;;;;;;;;;5021992;28;20040;-55
2022/01/12 10:10:15;;;;;;;6.10;5.13;;;;;;;;;;5025945;28;19916;-52
2022/01/12 10:12:54;;;;;;;7.88;4.60;;;;;;;;;;5020619;28;20040;-54
2022/01/12 10:15:21;;;;;;;6.15;4.57;;;;;;;;;;5020857;28;20026;-49
2022/01/12 10:17:47;;;;;;;10.88;4.85;;;;;;;;;;5022703;28;20056;-54
2022/01/12 10:20:21;;;;;;;5.90;4.93;;;;;;;;;;5023867;28;20049;-53
2022/01/12 10:23:06;;;;;;;7.35;4.40;;;;;;;;;;5025270;28;20124;-55
2022/01/12 10:25:32;;;;;;;10.55;5.65;;;;;;;;;;5019615;28;20022;-54
2022/01/12 10:28:00;;;;;;;7.30;4.85;;;;;;;;;;5027378;28;20053;-56
2022/01/12 10:30:29;;;;;;;7.50;4.15;;;;;;;;;;5020877;28;20033;-54
2022/01/12 10:33:14;;;;;;;12.38;4.97;;;;;;;;;;5026404;28;20026;-53
2022/01/12 10:35:41;;;;;;;6.95;4.22;;;;;;;;;;5020748;28;20030;-51
2022/01/12 10:38:17;;;;;;;6.22;4.63;;;;;;;;;;5022705;28;20029;-56
2022/01/12 10:40:45;;;;;;;7.32;4.57;;;;;;;;;;5027711;28;20037;-55
2022/01/12 10:43:34;;;;;;;7.50;4.43;;;;;;;;;;5022638;28;20037;-52
2022/01/12 10:46:09;;;;;;;5.40;4.20;;;;;;;;;;5024606;28;20030;-53
2022/01/12 10:48:55;;;;;;;6.78;4.20;;;;;;;;;;5022251;28;20037;-53
2022/01/12 10:51:26;;;;;;;6.53;4.60;;;;;;;;;;5024183;28;20040;-51
2022/01/12 10:53:58;;;;;;;9.25;5.47;;;;;;;;;;5024677;28;20030;-54
2022/01/12 10:56:24;;;;;;;6.07;5.10;;;;;;;;;;5027169;28;20372;-55
2022/01/12 10:58:53;;;;;;;14.80;6.22;;;;;;;;;;5016676;28;20065;-53
2022/01/12 11:01:21;;;;;;;8.88;5.80;;;;;;;;;;5026569;28;20021;-55
2022/01/12 11:03:48;;;;;;;6.68;5.15;;;;;;;;;;5014644;28;20621;-49
2022/01/12 11:06:14;;;;;;;8.68;5.72;;;;;;;;;;5018970;28;20026;-54
2022/01/12 11:08:41;;;;;;;8.68;5.88;;;;;;;;;;5026035;28;20095;-56
2022/01/12 11:11:08;;;;;;;12.95;6.38;;;;;;;;;;5027601;28;20076;-54
2022/01/12 11:13:34;;;;;;;15.48;9.75;;;;;;;;;;5019599;28;20033;-56
2022/01/12 11:16:00;;;;;;;19.63;9.45;;;;;;;;;;5024597;28;20897;-56
2022/01/12 11:18:29;;;;;;;17.45;8.60;;;;;;;;;;5020388;28;20045;-55
2022/01/12 11:21:08;;;;;;;10.38;6.97;;;;;;;;;;5020752;28;20356;-54
2022/01/12 11:23:40;;;;;;;8.75;5.90;;;;;;;;;;5023837;28;20034;-56
2022/01/12 11:26:15;;;;;;;12.18;5.35;;;;;;;;;;5022793;28;20414;-55
2022/01/12 11:28:41;;;;;;;14.32;5.47;;;;;;;;;;5021812;28;20041;-56
2022/01/12 11:31:08;;;;;;;9.98;5.60;;;;;;;;;;5022862;28;20025;-57
2022/01/12 11:33:40;;;;;;;8.02;6.30;;;;;;;;;;5022944;28;20049;-54
2022/01/12 11:36:17;;;;;;;9.00;6.00;;;;;;;;;;5022356;28;20033;-56
2022/01/12 11:38:50;;;;;;;12.38;6.93;;;;;;;;;;5021742;28;20371;-56
2022/01/12 11:41:25;;;;;;;12.98;8.60;;;;;;;;;;5013751;28;20037;-57
2022/01/12 11:43:57;;;;;;;10.25;7.50;;;;;;;;;;5019523;28;21771;-61
2022/01/12 11:46:24;;;;;;;;;;;;;;;;;;5025705;28;20540;-52
2022/01/12 11:48:57;;;;;;;8.88;7.10;;;;;;;;;;5017768;28;20318;-52
2022/01/12 11:51:39;;;;;;;7.43;6.47;;;;;;;;;;5025069;28;20032;-53
2022/01/12 11:54:20;;;;;;;10.45;6.18;;;;;;;;;;5020507;28;20040;-56
2022/01/12 11:56:59;;;;;;;15.75;6.65;;;;;;;;;;5022650;28;20041;-50
2022/01/12 11:59:27;;;;;;;9.82;6.70;;;;;;;;;;5018185;28;20065;-50
2022/01/12 12:02:06;;;;;;;13.25;6.35;;;;;;;;;;5019847;28;20409;-54
2022/01/12 12:04:34;;;;;;;7.38;5.57;;;;;;;;;;5021755;28;20033;-57
2022/01/12 12:07:07;;;;;;;9.30;6.68;;;;;;;;;;5025687;28;20025;-54
2022/01/12 12:09:38;;;;;;;10.80;6.07;;;;;;;;;;5022333;28;20033;-51
2022/01/12 12:12:11;;;;;;;7.05;5.63;;;;;;;;;;5022656;28;20033;-56
2022/01/12 12:14:37;;;;;;;8.07;5.72;;;;;;;;;;5018770;28;20040;-54
2022/01/12 12:17:04;;;;;;;8.88;5.35;;;;;;;;;;5018694;28;20029;-48
2022/01/12 12:19:33;;;;;;;7.53;5.95;;;;;;;;;;5017521;28;20111;-50
2022/01/12 12:21:58;;;;;;;10.43;6.03;;;;;;;;;;5026729;28;20038;-48
2022/01/12 12:24:24;;;;;;;9.45;6.28;;;;;;;;;;5020912;28;20048;-49
2022/01/12 12:26:54;;;;;;;6.75;5.90;;;;;;;;;;5024356;28;20052;-49
2022/01/12 12:29:28;;;;;;;6.20;5.43;;;;;;;;;;5019694;28;20104;-50
2022/01/12 12:31:57;;;;;;;8.50;5.65;;;;;;;;;;5020787;28;20029;-55
2022/01/12 12:34:25;;;;;;;6.72;6.05;;;;;;;;;;5022477;28;20494;-50
2022/01/12 12:37:03;;;;;;;10.25;6.18;;;;;;;;;;5020866;28;20041;-54
2022/01/12 12:39:32;;;;;;;9.13;6.40;;;;;;;;;;5023083;28;20044;-50
2022/01/12 12:42:00;;;;;;;8.60;6.47;;;;;;;;;;5022917;28;20037;-52
2022/01/12 12:44:30;;;;;;;10.80;7.30;;;;;;;;;;5023715;28;20104;-49
2022/01/12 12:47:13;;;;;;;8.20;6.50;;;;;;;;;;5022782;28;20107;-54
2022/01/12 12:49:45;;;;;;;9.50;5.90;;;;;;;;;;5021043;28;20040;-52
2022/01/12 12:52:11;;;;;;;9.18;6.03;;;;;;;;;;5022609;28;20902;-51
2022/01/12 12:54:41;;;;;;;8.02;5.90;;;;;;;;;;5023580;28;20035;-54
2022/01/12 12:57:11;;;;;;;9.38;5.97;;;;;;;;;;5019853;28;20056;-53
2022/01/12 12:59:37;;;;;;;15.55;5.95;;;;;;;;;;5019989;28;20364;-50
2022/01/12 13:02:12;;;;;;;9.27;6.05;;;;;;;;;;5027656;28;20037;-52
2022/01/12 13:04:38;;;;;;;6.78;5.93;;;;;;;;;;5019376;28;20056;-53
2022/01/12 13:07:15;;;;;;;10.18;6.15;;;;;;;;;;5023032;28;20040;-51
2022/01/12 13:09:41;;;;;;;8.82;7.20;;;;;;;;;;5020000;28;20037;-51
2022/01/12 13:12:08;;;;;;;7.97;6.28;;;;;;;;;;5026511;28;20418;-52
2022/01/12 13:14:42;;;;;;;8.60;5.85;;;;;;;;;;5024096;28;20052;-50
2022/01/12 13:17:08;;;;;;;8.70;6.68;;;;;;;;;;5024069;28;20033;-53
2022/01/12 13:22:31;;;;;;;14.77;7.40;;;;;;;;;;5022355;28;20045;-51
2022/01/12 13:24:58;;;;;;;10.63;6.90;;;;;;;;;;5021499;28;20045;-48
2022/01/12 13:27:25;;;;;;;11.52;7.57;;;;;;;;;;5026596;28;20374;-50
2022/01/12 13:29:52;;;;;;;8.85;6.72;;;;;;;;;;5025478;28;20044;-55
2022/01/12 13:32:18;;;;;;;11.57;7.82;;;;;;;;;;5026613;28;20483;-53
2022/01/12 13:35:13;;;;;;;14.07;7.68;;;;;;;;;;5022124;28;20116;-51
2022/01/12 13:37:41;;;;;;;10.30;7.43;;;;;;;;;;5025369;28;20037;-51
2022/01/12 13:40:12;;;;;;;8.35;7.28;;;;;;;;;;5022792;28;20066;-52
2022/01/12 13:42:53;;;;;;;10.90;7.35;;;;;;;;;;5024660;28;20068;-52
2022/01/12 13:45:27;;;;;;;7.93;6.55;;;;;;;;;;5024226;28;20674;-54
2022/01/12 13:47:59;;;;;;;11.43;7.10;;;;;;;;;;5022551;28;20030;-50
2022/01/12 13:50:36;;;;;;;10.23;6.75;;;;;;;;;;5027596;28;20086;-49
2022/01/12 13:53:03;;;;;;;12.73;6.80;;;;;;;;;;5024217;28;20083;-52
2022/01/12 13:55:29;;;;;;;10.02;6.30;;;;;;;;;;5022774;28;20025;-54
2022/01/12 13:58:04;;;;;;;8.38;5.80;;;;;;;;;;5022173;28;20083;-56
2022/01/12 14:00:32;;;;;;;11.27;5.78;;;;;;;;;;5027947;28;20037;-53
2022/01/12 14:02:58;;;;;;;8.45;5.53;;;;;;;;;;5025961;28;20030;-55
2022/01/12 14:05:37;;;;;;;7.13;5.45;;;;;;;;;;5025790;28;20108;-52
2022/01/12 14:08:11;;;;;;;6.57;5.40;;;;;;;;;;5018606;28;20037;-56
2022/01/12 14:10:36;;;;;;;7.55;5.28;;;;;;;;;;5020289;28;20038;-52
2022/01/12 14:13:02;;;;;;;7.70;5.20;;;;;;;;;;5023722;28;20112;-51
2022/01/12 14:15:30;;;;;;;8.80;5.72;;;;;;;;;;5015689;28;20033;-51
2022/01/12 14:17:58;;;;;;;8.05;5.63;;;;;;;;;;5019563;28;20595;-52
2022/01/12 14:20:31;;;;;;;7.25;5.90;;;;;;;;;;5023854;28;20057;-52
2022/01/12 14:23:00;;;;;;;11.98;6.95;;;;;;;;;;5022901;28;20025;-52
2022/01/12 14:25:43;;;;;;;7.20;5.53;;;;;;;;;;5022160;28;20029;-52
2022/01/12 14:28:12;;;;;;;9.75;6.03;;;;;;;;;;5022201;28;20048;-50
2022/01/12 14:30:38;;;;;;;9.07;6.45;;;;;;;;;;5019394;28;20091;-50
2022/01/12 14:33:05;;;;;;;7.95;6.53;;;;;;;;;;5024950;28;20035;-52
2022/01/12 14:35:31;;;;;;;17.52;7.78;;;;;;;;;;5024521;28;20069;-52
2022/01/12 14:37:57;;;;;;;10.20;7.30;;;;;;;;;;5012352;28;20102;-55
2022/01/12 14:40:24;;;;;;;9.82;7.43;;;;;;;;;;5021199;28;20429;-50
2022/01/12 14:42:53;;;;;;;10.85;7.57;;;;;;;;;;5023855;28;20091;-51
2022/01/12 14:45:23;;;;;;;12.10;7.32;;;;;;;;;;5022630;28;20033;-53
2022/01/12 14:47:51;;;;;;;8.98;6.93;;;;;;;;;;5022917;28;20026;-51
2022/01/12 14:50:19;;;;;;;8.73;6.75;;;;;;;;;;5021830;28;20047;-52
2022/01/12 14:52:45;;;;;;;9.40;6.97;;;;;;;;;;5025004;28;20059;-50
2022/01/12 14:55:11;;;;;;;14.00;7.22;;;;;;;;;;5020541;28;20034;-52
2022/01/12 14:57:38;;;;;;;12.88;9.05;;;;;;;;;;5022416;28;20116;-52
2022/01/12 15:00:08;;;;;;;17.35;11.02;;;;;;;;;;5022072;28;20036;-51
2022/01/12 15:02:35;;;;;;;15.48;10.52;;;;;;;;;;5021394;28;20053;-56
2022/01/12 15:05:01;;;;;;;11.77;8.75;;;;;;;;;;5021611;28;20034;-54
2022/01/12 15:07:27;;;;;;;14.55;8.45;;;;;;;;;;5021554;28;20021;-55
2022/01/12 15:09:54;;;;;;;11.57;8.70;;;;;;;;;;5022725;28;20125;-53
2022/01/12 15:12:28;;;;;;;12.75;10.27;;;;;;;;;;5023229;28;20040;-51
2022/01/12 15:14:58;;;;;;;14.00;11.20;;;;;;;;;;5023335;28;20505;-51
2022/01/12 15:17:24;;;;;;;11.57;8.13;;;;;;;;;;5021609;28;20110;-50
2022/01/12 15:19:50;;;;;;;13.15;10.32;;;;;;;;;;5023993;28;20501;-53
2022/01/12 15:22:16;;;;;;;10.15;8.30;;;;;;;;;;5027008;28;20041;-54
2022/01/12 15:24:42;;;;;;;11.77;8.20;;;;;;;;;;5020094;28;20501;-51
2022/01/12 15:27:08;;;;;;;13.02;9.10;;;;;;;;;;5050584;28;20180;-51
2022/01/12 15:29:33;;;;;;;9.27;6.93;;;;;;;;;;5020020;28;20033;-50
2022/01/12 15:31:59;;;;;;;16.15;9.23;;;;;;;;;;5018429;28;20033;-51
2022/01/12 15:34:25;;;;;;;13.77;9.73;;;;;;;;;;5020574;28;20084;-50
2022/01/12 15:36:52;;;;;;;12.52;11.20;;;;;;;;;;5021065;28;20034;-53
2022/01/12 15:39:18;;;;;;;12.05;9.57;;;;;;;;;;5022446;28;20042;-53
2022/01/12 15:41:44;;;;;;;10.88;8.30;;;;;;;;;;5023240;28;20030;-53
2022/01/12 15:44:09;;;;;;;12.50;9.73;;;;;;;;;;5024092;28;20051;-55
2022/01/12 15:46:35;;;;;;;10.20;7.80;;;;;;;;;;5017997;28;20067;-52
2022/01/12 15:49:01;;;;;;;12.95;9.10;;;;;;;;;;5023243;28;20463;-52
2022/01/12 15:51:27;;;;;;;12.63;8.10;;;;;;;;;;5017464;28;20117;-51
2022/01/12 15:53:52;;;;;;;14.68;10.20;;;;;;;;;;5018078;28;20049;-56
2022/01/12 15:56:19;;;;;;;14.45;10.18;;;;;;;;;;5023394;28;20479;-54
2022/01/12 15:58:45;;;;;;;12.73;9.55;;;;;;;;;;5020462;28;20033;-50
2022/01/12 16:01:12;;;;;;;20.65;8.70;;;;;;;;;;5027103;28;20557;-56
2022/01/12 16:03:38;;;;;;;14.68;8.77;;;;;;;;;;5021646;28;20379;-54
2022/01/12 16:06:04;;;;;;;11.38;8.57;;;;;;;;;;5023841;28;20030;-52
2022/01/12 16:08:30;;;;;;;11.60;8.00;;;;;;;;;;5013888;28;20026;-56